EGGW/LTN METAR and TAF weather

Enter ICAO airport designator
Station Type Date Time Source
EGGW METAR 2022/06/28 15:20 UTC NOAA

EGGW 281520Z AUTO 20010KT 150V230 9999 NCD 20/07 Q1015


Station Type Date Time Source
EGGW Decoded METAR 2022/06/28 15:20 UTC NOAA

Luton Airport , United Kingdom (EGGW) 51-52N 000-22W
Jun 28, 2022 - 11:20 AM EDT / 2022.06.28 1520 UTC
Wind: from the SSW (200 degrees) at 12 MPH (10 KT) (direction variable):0
Visibility: greater than 7 mile(s):0
Temperature: 68 F (20 C)
Dew Point: 44 F (7 C)
Relative Humidity: 42%
Pressure (altimeter): 29.97 in. Hg (1015 hPa)
ob: EGGW 281520Z AUTO 20010KT 150V230 9999 NCD 20/07 Q1015
cycle: 15

Station Type Date Time Source
EGGW TAF 2022/06/28 12:09 UTC NOAA

TAF EGGW 281056Z 2812/2912 19012KT 9999 SCT035 PROB40
TEMPO 2812/2818 20015G25KT
TEMPO 2903/2909 8000 -RA BKN012 PROB30
TEMPO 2904/2908 4000 RADZ BKN008

Example: see airport list